sensor_id;sensor_type;location;lat;lon;timestamp;pressure;altitude;pressure_sealevel;temperature;humidity
6208;BME280;3137;51.550;7.060;2023-02-02T00:00:59;101629.41;;;4.44;91.36
6208;BME280;3137;51.550;7.060;2023-02-02T00:03:26;101624.06;;;4.46;91.38
6208;BME280;3137;51.550;7.060;2023-02-02T00:05:53;101642.50;;;4.49;91.40
6208;BME280;3137;51.550;7.060;2023-02-02T00:08:20;101655.75;;;4.51;91.50
6208;BME280;3137;51.550;7.060;2023-02-02T00:10:47;101651.34;;;4.50;91.41
6208;BME280;3137;51.550;7.060;2023-02-02T00:13:16;101662.75;;;4.52;91.30
6208;BME280;3137;51.550;7.060;2023-02-02T00:15:42;101634.44;;;4.52;91.35
6208;BME280;3137;51.550;7.060;2023-02-02T00:18:09;101642.19;;;4.60;90.91
6208;BME280;3137;51.550;7.060;2023-02-02T00:20:35;101648.53;;;4.54;91.13
6208;BME280;3137;51.550;7.060;2023-02-02T00:23:02;101640.69;;;4.51;91.43
6208;BME280;3137;51.550;7.060;2023-02-02T00:25:30;101656.59;;;4.51;91.57
6208;BME280;3137;51.550;7.060;2023-02-02T00:27:56;101632.69;;;4.53;91.53
6208;BME280;3137;51.550;7.060;2023-02-02T00:30:23;101630.13;;;4.50;91.53
6208;BME280;3137;51.550;7.060;2023-02-02T00:32:49;101635.34;;;4.53;91.57
6208;BME280;3137;51.550;7.060;2023-02-02T00:35:18;101635.34;;;4.53;91.44
6208;BME280;3137;51.550;7.060;2023-02-02T00:37:45;101638.91;;;4.52;91.62
6208;BME280;3137;51.550;7.060;2023-02-02T00:40:12;101634.38;;;4.55;91.84
6208;BME280;3137;51.550;7.060;2023-02-02T00:42:38;101631.72;;;4.55;91.82
6208;BME280;3137;51.550;7.060;2023-02-02T00:45:05;101628.94;;;4.60;91.40
6208;BME280;3137;51.550;7.060;2023-02-02T00:47:46;101626.28;;;4.60;91.86
6208;BME280;3137;51.550;7.060;2023-02-02T00:50:16;101640.00;;;4.73;91.78
6208;BME280;3137;51.550;7.060;2023-02-02T00:52:42;101646.00;;;4.78;91.68
6208;BME280;3137;51.550;7.060;2023-02-02T00:55:10;101639.59;;;4.85;91.56
6208;BME280;3137;51.550;7.060;2023-02-02T00:57:37;101633.25;;;4.89;91.35
6208;BME280;3137;51.550;7.060;2023-02-02T01:00:05;101631.16;;;4.99;91.39
6208;BME280;3137;51.550;7.060;2023-02-02T01:02:33;101625.00;;;4.98;91.94
6208;BME280;3137;51.550;7.060;2023-02-02T01:05:00;101623.94;;;5.02;91.40
6208;BME280;3137;51.550;7.060;2023-02-02T01:07:27;101637.03;;;5.08;91.63
6208;BME280;3137;51.550;7.060;2023-02-02T01:09:55;101634.16;;;5.15;91.66
6208;BME280;3137;51.550;7.060;2023-02-02T01:12:22;101624.25;;;5.20;91.73
6208;BME280;3137;51.550;7.060;2023-02-02T01:14:48;101629.13;;;5.32;91.49
6208;BME280;3137;51.550;7.060;2023-02-02T01:17:15;101631.72;;;5.33;91.51
6208;BME280;3137;51.550;7.060;2023-02-02T01:19:41;101633.31;;;5.39;91.55
6208;BME280;3137;51.550;7.060;2023-02-02T01:22:08;101631.19;;;5.49;91.27
6208;BME280;3137;51.550;7.060;2023-02-02T01:24:34;101624.03;;;5.51;91.11
6208;BME280;3137;51.550;7.060;2023-02-02T01:27:00;101628.41;;;5.52;91.42
6208;BME280;3137;51.550;7.060;2023-02-02T01:29:27;101632.63;;;5.58;91.23
6208;BME280;3137;51.550;7.060;2023-02-02T01:31:54;101634.41;;;5.57;91.29
6208;BME280;3137;51.550;7.060;2023-02-02T01:34:20;101640.72;;;5.54;91.33
6208;BME280;3137;51.550;7.060;2023-02-02T01:36:47;101636.16;;;5.58;91.30
6208;BME280;3137;51.550;7.060;2023-02-02T01:39:13;101646.69;;;5.61;91.40
6208;BME280;3137;51.550;7.060;2023-02-02T01:41:40;101645.66;;;5.65;91.33
6208;BME280;3137;51.550;7.060;2023-02-02T01:47:11;101644.72;;;5.66;91.27
6208;BME280;3137;51.550;7.060;2023-02-02T01:49:39;101642.91;;;5.67;91.25
6208;BME280;3137;51.550;7.060;2023-02-02T01:52:07;101648.16;;;5.70;91.42
6208;BME280;3137;51.550;7.060;2023-02-02T01:54:39;101655.19;;;5.71;91.37
6208;BME280;3137;51.550;7.060;2023-02-02T01:57:26;101655.13;;;5.72;91.33
6208;BME280;3137;51.550;7.060;2023-02-02T01:59:56;101663.03;;;5.74;91.35
6208;BME280;3137;51.550;7.060;2023-02-02T02:02:24;101670.69;;;5.83;91.05
6208;BME280;3137;51.550;7.060;2023-02-02T02:04:54;101671.63;;;5.82;91.34
6208;BME280;3137;51.550;7.060;2023-02-02T02:07:21;101669.69;;;5.86;91.57
6208;BME280;3137;51.550;7.060;2023-02-02T02:09:49;101675.00;;;5.86;91.11
6208;BME280;3137;51.550;7.060;2023-02-02T02:12:15;101676.75;;;5.87;91.46
6208;BME280;3137;51.550;7.060;2023-02-02T02:14:44;101672.97;;;5.94;91.38
6208;BME280;3137;51.550;7.060;2023-02-02T02:20:53;101656.22;;;5.90;91.74
6208;BME280;3137;51.550;7.060;2023-02-02T02:33:35;101647.13;;;5.97;91.95
6208;BME280;3137;51.550;7.060;2023-02-02T02:41:52;101655.16;;;5.96;91.81
6208;BME280;3137;51.550;7.060;2023-02-02T02:44:21;101664.84;;;5.99;91.63
6208;BME280;3137;51.550;7.060;2023-02-02T02:46:48;101649.66;;;6.01;91.38
6208;BME280;3137;51.550;7.060;2023-02-02T02:49:16;101655.97;;;5.98;90.80
6208;BME280;3137;51.550;7.060;2023-02-02T02:51:49;101663.94;;;5.98;90.80
6208;BME280;3137;51.550;7.060;2023-02-02T02:54:32;101655.88;;;6.01;90.51
6208;BME280;3137;51.550;7.060;2023-02-02T03:03:02;101655.88;;;6.01;90.18
6208;BME280;3137;51.550;7.060;2023-02-02T03:05:51;101667.59;;;5.95;90.40
6208;BME280;3137;51.550;7.060;2023-02-02T03:08:26;101658.88;;;5.90;90.35
6208;BME280;3137;51.550;7.060;2023-02-02T03:10:55;101661.53;;;5.90;89.53
6208;BME280;3137;51.550;7.060;2023-02-02T03:13:23;101652.56;;;5.94;89.16
6208;BME280;3137;51.550;7.060;2023-02-02T03:15:51;101660.56;;;5.94;89.33
6208;BME280;3137;51.550;7.060;2023-02-02T03:18:19;101658.72;;;5.96;89.52
6208;BME280;3137;51.550;7.060;2023-02-02T03:20:46;101669.34;;;5.96;89.17
6208;BME280;3137;51.550;7.060;2023-02-02T03:23:13;101664.03;;;5.96;89.36
6208;BME280;3137;51.550;7.060;2023-02-02T03:25:40;101657.91;;;5.94;89.86
6208;BME280;3137;51.550;7.060;2023-02-02T03:28:06;101655.41;;;5.88;90.00
6208;BME280;3137;51.550;7.060;2023-02-02T03:30:33;101658.16;;;5.87;90.48
6208;BME280;3137;51.550;7.060;2023-02-02T03:32:59;101657.25;;;5.86;90.63
6208;BME280;3137;51.550;7.060;2023-02-02T03:35:26;101655.59;;;5.84;90.77
6208;BME280;3137;51.550;7.060;2023-02-02T03:37:52;101653.06;;;5.81;91.28
6208;BME280;3137;51.550;7.060;2023-02-02T03:40:19;101657.44;;;5.82;91.07
6208;BME280;3137;51.550;7.060;2023-02-02T03:42:45;101654.03;;;5.78;91.58
6208;BME280;3137;51.550;7.060;2023-02-02T03:45:12;101655.75;;;5.79;91.31
6208;BME280;3137;51.550;7.060;2023-02-02T03:47:38;101653.88;;;5.83;91.54
6208;BME280;3137;51.550;7.060;2023-02-02T03:50:06;101654.72;;;5.83;91.38
6208;BME280;3137;51.550;7.060;2023-02-02T03:52:35;101653.81;;;5.84;91.47
6208;BME280;3137;51.550;7.060;2023-02-02T03:55:01;101657.44;;;5.82;91.68
6208;BME280;3137;51.550;7.060;2023-02-02T03:57:27;101655.75;;;5.79;92.07
6208;BME280;3137;51.550;7.060;2023-02-02T03:59:54;101655.59;;;5.84;92.04
6208;BME280;3137;51.550;7.060;2023-02-02T04:02:20;101653.91;;;5.81;92.09
6208;BME280;3137;51.550;7.060;2023-02-02T04:04:47;101655.88;;;5.76;92.12
6208;BME280;3137;51.550;7.060;2023-02-02T04:07:13;101661.19;;;5.76;92.42
6208;BME280;3137;51.550;7.060;2023-02-02T04:09:40;101663.00;;;5.75;92.62
6208;BME280;3137;51.550;7.060;2023-02-02T04:12:06;101652.94;;;5.84;92.51
6208;BME280;3137;51.550;7.060;2023-02-02T04:14:32;101655.66;;;5.82;92.40
6208;BME280;3137;51.550;7.060;2023-02-02T04:16:59;101656.66;;;5.80;92.22
6208;BME280;3137;51.550;7.060;2023-02-02T04:19:25;101652.09;;;5.82;92.46
6208;BME280;3137;51.550;7.060;2023-02-02T04:21:52;101658.31;;;5.82;92.52
6208;BME280;3137;51.550;7.060;2023-02-02T04:24:19;101664.53;;;5.81;92.50
6208;BME280;3137;51.550;7.060;2023-02-02T04:26:45;101668.13;;;5.80;92.52
6208;BME280;3137;51.550;7.060;2023-02-02T04:29:12;101660.28;;;5.77;92.58
6208;BME280;3137;51.550;7.060;2023-02-02T04:31:38;101665.53;;;5.79;92.69
6208;BME280;3137;51.550;7.060;2023-02-02T04:34:04;101667.16;;;5.83;92.76
6208;BME280;3137;51.550;7.060;2023-02-02T04:36:31;101668.84;;;5.85;92.60
6208;BME280;3137;51.550;7.060;2023-02-02T04:38:57;101669.78;;;5.84;92.56
6208;BME280;3137;51.550;7.060;2023-02-02T04:41:24;101658.19;;;5.85;92.48
6208;BME280;3137;51.550;7.060;2023-02-02T04:43:50;101653.75;;;5.86;92.95
6208;BME280;3137;51.550;7.060;2023-02-02T04:46:17;101669.66;;;5.87;92.96
6208;BME280;3137;51.550;7.060;2023-02-02T04:48:43;101666.91;;;5.89;92.90
6208;BME280;3137;51.550;7.060;2023-02-02T04:51:12;101660.69;;;5.90;92.97
6208;BME280;3137;51.550;7.060;2023-02-02T04:53:40;101658.16;;;5.87;93.08
6208;BME280;3137;51.550;7.060;2023-02-02T04:56:12;101662.41;;;5.91;92.94
6208;BME280;3137;51.550;7.060;2023-02-02T04:58:39;101661.41;;;5.95;93.04
6208;BME280;3137;51.550;7.060;2023-02-02T05:01:11;101661.38;;;5.96;92.79
6208;BME280;3137;51.550;7.060;2023-02-02T05:03:38;101647.94;;;6.00;92.47
6208;BME280;3137;51.550;7.060;2023-02-02T05:06:05;101645.94;;;6.06;92.57
6208;BME280;3137;51.550;7.060;2023-02-02T05:08:31;101655.75;;;6.04;92.26
6208;BME280;3137;51.550;7.060;2023-02-02T05:10:58;101656.41;;;6.11;91.92
6208;BME280;3137;51.550;7.060;2023-02-02T05:13:24;101656.25;;;6.14;91.36
6208;BME280;3137;51.550;7.060;2023-02-02T05:15:52;101650.69;;;6.20;91.33
6208;BME280;3137;51.550;7.060;2023-02-02T05:18:19;101656.81;;;6.22;90.78
6208;BME280;3137;51.550;7.060;2023-02-02T05:20:45;101656.59;;;6.28;90.94
6208;BME280;3137;51.550;7.060;2023-02-02T05:23:11;101649.47;;;6.29;90.65
6208;BME280;3137;51.550;7.060;2023-02-02T05:25:38;101659.13;;;6.31;90.29
6208;BME280;3137;51.550;7.060;2023-02-02T05:28:04;101643.94;;;6.35;90.19
6208;BME280;3137;51.550;7.060;2023-02-02T05:30:30;101651.72;;;6.39;89.55
6208;BME280;3137;51.550;7.060;2023-02-02T05:32:58;101652.50;;;6.42;89.54
6208;BME280;3137;51.550;7.060;2023-02-02T05:35:25;101650.75;;;6.42;89.84
6208;BME280;3137;51.550;7.060;2023-02-02T05:37:52;101655.94;;;6.45;89.12
6208;BME280;3137;51.550;7.060;2023-02-02T05:40:18;101653.09;;;6.50;88.71
6208;BME280;3137;51.550;7.060;2023-02-02T05:42:47;101653.81;;;6.53;88.66
6208;BME280;3137;51.550;7.060;2023-02-02T05:45:13;101653.78;;;6.55;88.17
6208;BME280;3137;51.550;7.060;2023-02-02T05:47:40;101651.94;;;6.57;88.06
6208;BME280;3137;51.550;7.060;2023-02-02T05:50:07;101654.53;;;6.58;88.69
6208;BME280;3137;51.550;7.060;2023-02-02T05:52:34;101661.63;;;6.58;88.64
6208;BME280;3137;51.550;7.060;2023-02-02T05:55:02;101663.44;;;6.57;88.31
6208;BME280;3137;51.550;7.060;2023-02-02T05:57:29;101672.22;;;6.59;88.38
6208;BME280;3137;51.550;7.060;2023-02-02T05:59:56;101665.22;;;6.57;88.36
6208;BME280;3137;51.550;7.060;2023-02-02T06:02:22;101651.78;;;6.60;88.12
6208;BME280;3137;51.550;7.060;2023-02-02T06:04:48;101657.25;;;6.57;88.12
6208;BME280;3137;51.550;7.060;2023-02-02T06:07:15;101657.94;;;6.62;87.90
6208;BME280;3137;51.550;7.060;2023-02-02T06:09:41;101673.03;;;6.62;87.83
6208;BME280;3137;51.550;7.060;2023-02-02T06:12:08;101662.31;;;6.63;87.90
6208;BME280;3137;51.550;7.060;2023-02-02T06:14:34;101675.75;;;6.60;88.09
6208;BME280;3137;51.550;7.060;2023-02-02T06:17:01;101668.53;;;6.64;87.68
6208;BME280;3137;51.550;7.060;2023-02-02T06:19:27;101684.53;;;6.62;88.29
6208;BME280;3137;51.550;7.060;2023-02-02T06:21:54;101671.22;;;6.62;88.11
6208;BME280;3137;51.550;7.060;2023-02-02T06:24:20;101675.19;;;6.52;88.71
6208;BME280;3137;51.550;7.060;2023-02-02T06:26:47;101670.56;;;6.57;88.46
6208;BME280;3137;51.550;7.060;2023-02-02T06:29:13;101682.06;;;6.57;88.63
6208;BME280;3137;51.550;7.060;2023-02-02T06:31:40;101677.69;;;6.56;89.03
6208;BME280;3137;51.550;7.060;2023-02-02T06:34:08;101672.28;;;6.58;88.46
6208;BME280;3137;51.550;7.060;2023-02-02T06:36:35;101681.38;;;6.52;88.80
6208;BME280;3137;51.550;7.060;2023-02-02T06:39:01;101683.09;;;6.53;88.64
6208;BME280;3137;51.550;7.060;2023-02-02T06:41:30;101693.56;;;6.58;88.70
6208;BME280;3137;51.550;7.060;2023-02-02T06:43:56;101687.44;;;6.56;88.78
6208;BME280;3137;51.550;7.060;2023-02-02T06:46:23;101694.72;;;6.51;89.11
6208;BME280;3137;51.550;7.060;2023-02-02T06:48:49;101705.28;;;6.54;88.78
6208;BME280;3137;51.550;7.060;2023-02-02T06:51:15;101702.44;;;6.58;88.84
6208;BME280;3137;51.550;7.060;2023-02-02T06:53:42;101698.16;;;6.54;89.16
6208;BME280;3137;51.550;7.060;2023-02-02T06:56:11;101706.00;;;6.57;89.07
6208;BME280;3137;51.550;7.060;2023-02-02T06:58:38;101703.34;;;6.57;88.84
6208;BME280;3137;51.550;7.060;2023-02-02T07:01:07;101702.63;;;6.54;89.55
6208;BME280;3137;51.550;7.060;2023-02-02T07:03:34;101702.50;;;6.57;89.11
6208;BME280;3137;51.550;7.060;2023-02-02T07:06:15;101707.81;;;6.57;88.64
6208;BME280;3137;51.550;7.060;2023-02-02T07:08:42;101716.69;;;6.56;89.11
6208;BME280;3137;51.550;7.060;2023-02-02T07:11:09;101701.63;;;6.56;89.11
6208;BME280;3137;51.550;7.060;2023-02-02T07:13:43;101713.25;;;6.54;89.21
6208;BME280;3137;51.550;7.060;2023-02-02T07:16:10;101706.94;;;6.56;89.10
6208;BME280;3137;51.550;7.060;2023-02-02T07:18:38;101704.22;;;6.58;89.09
6208;BME280;3137;51.550;7.060;2023-02-02T07:21:05;101715.75;;;6.58;88.36
6208;BME280;3137;51.550;7.060;2023-02-02T07:23:32;101719.28;;;6.59;88.80
6208;BME280;3137;51.550;7.060;2023-02-02T07:26:07;101724.47;;;6.62;88.90
6208;BME280;3137;51.550;7.060;2023-02-02T07:28:34;101725.28;;;6.64;88.72
6208;BME280;3137;51.550;7.060;2023-02-02T07:31:14;101718.19;;;6.63;88.50
6208;BME280;3137;51.550;7.060;2023-02-02T07:33:42;101726.94;;;6.67;88.29
6208;BME280;3137;51.550;7.060;2023-02-02T07:36:10;101734.06;;;6.66;88.75
6208;BME280;3137;51.550;7.060;2023-02-02T07:38:36;101724.28;;;6.67;88.68
6208;BME280;3137;51.550;7.060;2023-02-02T07:41:03;101730.53;;;6.66;88.62
6208;BME280;3137;51.550;7.060;2023-02-02T07:43:30;101734.06;;;6.66;88.92
6208;BME280;3137;51.550;7.060;2023-02-02T07:46:00;101735.91;;;6.64;89.09
6208;BME280;3137;51.550;7.060;2023-02-02T07:48:29;101740.25;;;6.67;88.85
6208;BME280;3137;51.550;7.060;2023-02-02T07:50:59;101738.59;;;6.64;89.36
6208;BME280;3137;51.550;7.060;2023-02-02T07:53:27;101737.94;;;6.57;89.62
6208;BME280;3137;51.550;7.060;2023-02-02T07:56:13;101739.56;;;6.62;89.62
6208;BME280;3137;51.550;7.060;2023-02-02T07:58:41;101743.22;;;6.59;89.54
6208;BME280;3137;51.550;7.060;2023-02-02T08:01:10;101744.09;;;6.59;89.57
6208;BME280;3137;51.550;7.060;2023-02-02T08:03:37;101751.25;;;6.57;90.03
6208;BME280;3137;51.550;7.060;2023-02-02T08:06:34;101752.06;;;6.59;89.96
6208;BME280;3137;51.550;7.060;2023-02-02T08:09:03;101756.34;;;6.64;90.04
6208;BME280;3137;51.550;7.060;2023-02-02T08:11:30;101757.38;;;6.59;89.80
6208;BME280;3137;51.550;7.060;2023-02-02T08:13:58;101763.69;;;6.57;90.07
6208;BME280;3137;51.550;7.060;2023-02-02T08:16:26;101769.94;;;6.56;90.04
6208;BME280;3137;51.550;7.060;2023-02-02T08:18:54;101775.22;;;6.57;90.45
6208;BME280;3137;51.550;7.060;2023-02-02T08:21:20;101772.59;;;6.56;90.47
6208;BME280;3137;51.550;7.060;2023-02-02T08:23:47;101774.41;;;6.55;90.30
6208;BME280;3137;51.550;7.060;2023-02-02T08:26:16;101781.38;;;6.58;90.71
6208;BME280;3137;51.550;7.060;2023-02-02T08:28:45;101781.38;;;6.58;90.78
6208;BME280;3137;51.550;7.060;2023-02-02T08:31:19;101778.00;;;6.54;90.82
6208;BME280;3137;51.550;7.060;2023-02-02T08:33:47;101781.56;;;6.53;91.25
6208;BME280;3137;51.550;7.060;2023-02-02T08:36:15;101780.56;;;6.56;91.03
6208;BME280;3137;51.550;7.060;2023-02-02T08:38:42;101772.66;;;6.54;91.40
6208;BME280;3137;51.550;7.060;2023-02-02T08:41:12;101784.22;;;6.53;91.03
6208;BME280;3137;51.550;7.060;2023-02-02T08:43:39;101784.13;;;6.56;91.43
6208;BME280;3137;51.550;7.060;2023-02-02T08:46:06;101780.66;;;6.54;91.21
6208;BME280;3137;51.550;7.060;2023-02-02T08:48:34;101790.34;;;6.55;91.63
6208;BME280;3137;51.550;7.060;2023-02-02T08:51:02;101792.22;;;6.53;91.17
6208;BME280;3137;51.550;7.060;2023-02-02T08:53:29;101796.63;;;6.54;91.39
6208;BME280;3137;51.550;7.060;2023-02-02T08:56:00;101802.00;;;6.53;91.26
6208;BME280;3137;51.550;7.060;2023-02-02T08:58:27;101809.94;;;6.54;91.72
6208;BME280;3137;51.550;7.060;2023-02-02T09:00:53;101812.47;;;6.57;91.16
6208;BME280;3137;51.550;7.060;2023-02-02T09:03:20;101812.63;;;6.53;91.42
6208;BME280;3137;51.550;7.060;2023-02-02T09:05:46;101814.31;;;6.55;91.63
6208;BME280;3137;51.550;7.060;2023-02-02T09:08:13;101818.78;;;6.55;91.55
6208;BME280;3137;51.550;7.060;2023-02-02T09:10:39;101827.56;;;6.57;91.38
6208;BME280;3137;51.550;7.060;2023-02-02T09:13:05;101838.22;;;6.57;91.56
6208;BME280;3137;51.550;7.060;2023-02-02T09:15:32;101841.88;;;6.54;91.74
6208;BME280;3137;51.550;7.060;2023-02-02T09:17:58;101844.56;;;6.53;91.82
6208;BME280;3137;51.550;7.060;2023-02-02T09:20:25;101845.50;;;6.52;92.00
6208;BME280;3137;51.550;7.060;2023-02-02T09:22:54;101846.31;;;6.54;92.48
6208;BME280;3137;51.550;7.060;2023-02-02T09:25:20;101850.88;;;6.50;92.85
6208;BME280;3137;51.550;7.060;2023-02-02T09:27:47;101857.06;;;6.51;92.16
6208;BME280;3137;51.550;7.060;2023-02-02T09:30:13;101852.56;;;6.53;92.68
6208;BME280;3137;51.550;7.060;2023-02-02T09:32:40;101857.00;;;6.52;92.36
6208;BME280;3137;51.550;7.060;2023-02-02T09:35:07;101862.34;;;6.52;92.62
6208;BME280;3137;51.550;7.060;2023-02-02T09:37:33;101865.81;;;6.54;92.61
6208;BME280;3137;51.550;7.060;2023-02-02T09:40:00;101866.72;;;6.53;92.51
6208;BME280;3137;51.550;7.060;2023-02-02T09:42:35;101873.81;;;6.54;92.40
6208;BME280;3137;51.550;7.060;2023-02-02T09:48:36;101892.34;;;6.56;92.51
6208;BME280;3137;51.550;7.060;2023-02-02T09:51:11;101886.94;;;6.59;92.33
6208;BME280;3137;51.550;7.060;2023-02-02T09:53:43;101889.59;;;6.59;92.58
6208;BME280;3137;51.550;7.060;2023-02-02T09:56:37;101891.56;;;6.54;92.32
6208;BME280;3137;51.550;7.060;2023-02-02T09:59:12;101907.25;;;6.62;92.54
6208;BME280;3137;51.550;7.060;2023-02-02T10:01:50;101902.91;;;6.59;92.29
6208;BME280;3137;51.550;7.060;2023-02-02T10:04:34;101909.97;;;6.60;92.13
6208;BME280;3137;51.550;7.060;2023-02-02T10:07:32;101911.59;;;6.64;91.79
6208;BME280;3137;51.550;7.060;2023-02-02T10:10:15;101915.13;;;6.65;92.12
6208;BME280;3137;51.550;7.060;2023-02-02T10:12:56;101915.16;;;6.63;92.23
6208;BME280;3137;51.550;7.060;2023-02-02T10:18:07;101917.81;;;6.63;92.11
6208;BME280;3137;51.550;7.060;2023-02-02T10:20:46;101916.16;;;6.60;92.19
6208;BME280;3137;51.550;7.060;2023-02-02T10:23:26;101926.00;;;6.58;92.48
6208;BME280;3137;51.550;7.060;2023-02-02T10:26:04;101929.53;;;6.59;92.05
6208;BME280;3137;51.550;7.060;2023-02-02T10:28:44;101934.69;;;6.64;92.31
6208;BME280;3137;51.550;7.060;2023-02-02T10:34:22;101935.56;;;6.64;92.05
6208;BME280;3137;51.550;7.060;2023-02-02T10:45:01;101930.00;;;6.70;91.26
6208;BME280;3137;51.550;7.060;2023-02-02T10:47:32;101932.56;;;6.73;91.12
6208;BME280;3137;51.550;7.060;2023-02-02T10:50:14;101937.81;;;6.75;90.93
6208;BME280;3137;51.550;7.060;2023-02-02T10:52:53;101932.44;;;6.76;91.12
6208;BME280;3137;51.550;7.060;2023-02-02T10:55:30;101933.25;;;6.78;91.05
6208;BME280;3137;51.550;7.060;2023-02-02T11:00:53;101939.31;;;6.82;90.87
6208;BME280;3137;51.550;7.060;2023-02-02T11:03:24;101945.47;;;6.84;90.42
6208;BME280;3137;51.550;7.060;2023-02-02T11:05:52;101937.47;;;6.84;90.57
6208;BME280;3137;51.550;7.060;2023-02-02T11:08:39;101942.81;;;6.84;90.62
6208;BME280;3137;51.550;7.060;2023-02-02T11:11:18;101944.44;;;6.88;90.60
6208;BME280;3137;51.550;7.060;2023-02-02T11:13:53;101948.78;;;6.91;90.61
6208;BME280;3137;51.550;7.060;2023-02-02T11:16:23;101942.50;;;6.92;90.10
6208;BME280;3137;51.550;7.060;2023-02-02T11:18:58;101944.47;;;6.87;90.32
6208;BME280;3137;51.550;7.060;2023-02-02T11:21:27;101946.25;;;6.88;89.81
6208;BME280;3137;51.550;7.060;2023-02-02T11:24:00;101944.44;;;6.88;90.31
6208;BME280;3137;51.550;7.060;2023-02-02T11:27:01;101943.41;;;6.92;89.67
6208;BME280;3137;51.550;7.060;2023-02-02T11:29:31;101938.78;;;6.97;89.81
6208;BME280;3137;51.550;7.060;2023-02-02T11:32:17;101944.16;;;6.96;89.76
6208;BME280;3137;51.550;7.060;2023-02-02T11:34:43;101940.50;;;6.98;89.55
6208;BME280;3137;51.550;7.060;2023-02-02T11:37:19;101943.00;;;7.03;89.09
6208;BME280;3137;51.550;7.060;2023-02-02T11:39:45;101938.66;;;7.00;89.48
6208;BME280;3137;51.550;7.060;2023-02-02T11:42:21;101938.50;;;7.05;88.99
6208;BME280;3137;51.550;7.060;2023-02-02T11:44:51;101941.97;;;7.07;88.91
6208;BME280;3137;51.550;7.060;2023-02-02T11:47:23;101943.81;;;7.05;89.17
6208;BME280;3137;51.550;7.060;2023-02-02T11:49:52;101943.59;;;7.11;88.87
6208;BME280;3137;51.550;7.060;2023-02-02T11:52:25;101939.00;;;7.15;88.94
6208;BME280;3137;51.550;7.060;2023-02-02T11:54:56;101937.03;;;7.20;88.54
6208;BME280;3137;51.550;7.060;2023-02-02T11:57:24;101937.16;;;7.17;88.36
6208;BME280;3137;51.550;7.060;2023-02-02T12:02:36;101940.50;;;7.22;88.61
6208;BME280;3137;51.550;7.060;2023-02-02T12:07:35;101939.69;;;7.20;88.25
6208;BME280;3137;51.550;7.060;2023-02-02T12:10:32;101946.78;;;7.21;88.13
6208;BME280;3137;51.550;7.060;2023-02-02T12:13:28;101940.63;;;7.19;88.40
6208;BME280;3137;51.550;7.060;2023-02-02T12:18:50;101953.09;;;7.18;87.78
6208;BME280;3137;51.550;7.060;2023-02-02T12:21:37;101952.09;;;7.21;87.34
6208;BME280;3137;51.550;7.060;2023-02-02T12:26:49;101945.84;;;7.22;88.46
6208;BME280;3137;51.550;7.060;2023-02-02T12:29:42;101951.16;;;7.22;88.28
6208;BME280;3137;51.550;7.060;2023-02-02T12:32:16;101953.88;;;7.20;87.29
6208;BME280;3137;51.550;7.060;2023-02-02T12:35:10;101955.69;;;7.20;87.78
6208;BME280;3137;51.550;7.060;2023-02-02T12:40:21;101955.63;;;7.21;87.46
6208;BME280;3137;51.550;7.060;2023-02-02T12:43:00;101950.22;;;7.23;87.89
6208;BME280;3137;51.550;7.060;2023-02-02T12:45:41;101947.50;;;7.24;87.99
6208;BME280;3137;51.550;7.060;2023-02-02T12:48:18;101954.66;;;7.24;87.25
6208;BME280;3137;51.550;7.060;2023-02-02T12:56:51;101949.44;;;7.21;88.16
6208;BME280;3137;51.550;7.060;2023-02-02T13:07:55;101938.88;;;7.18;88.13
6208;BME280;3137;51.550;7.060;2023-02-02T13:10:34;101937.97;;;7.19;88.27
6208;BME280;3137;51.550;7.060;2023-02-02T13:13:11;101948.50;;;7.22;88.74
6208;BME280;3137;51.550;7.060;2023-02-02T13:15:45;101943.22;;;7.20;88.90
6208;BME280;3137;51.550;7.060;2023-02-02T13:18:18;101934.38;;;7.20;89.00
6208;BME280;3137;51.550;7.060;2023-02-02T13:20:53;101940.47;;;7.23;87.89
6208;BME280;3137;51.550;7.060;2023-02-02T13:23:24;101936.91;;;7.23;88.47
6208;BME280;3137;51.550;7.060;2023-02-02T13:25:56;101946.81;;;7.19;88.70
6208;BME280;3137;51.550;7.060;2023-02-02T13:28:34;101945.78;;;7.23;88.67
6208;BME280;3137;51.550;7.060;2023-02-02T13:31:05;101947.69;;;7.20;88.86
6208;BME280;3137;51.550;7.060;2023-02-02T13:33:36;101959.28;;;7.19;88.42
6208;BME280;3137;51.550;7.060;2023-02-02T13:36:13;101949.53;;;7.18;88.66
6208;BME280;3137;51.550;7.060;2023-02-02T13:38:43;101968.13;;;7.19;88.63
6208;BME280;3137;51.550;7.060;2023-02-02T13:41:11;101962.81;;;7.19;88.25
6208;BME280;3137;51.550;7.060;2023-02-02T13:43:54;101962.81;;;7.19;88.39
6208;BME280;3137;51.550;7.060;2023-02-02T13:46:28;101967.28;;;7.19;88.48
6208;BME280;3137;51.550;7.060;2023-02-02T13:49:08;101965.53;;;7.18;88.44
6208;BME280;3137;51.550;7.060;2023-02-02T13:57:17;101971.66;;;7.20;88.62
6208;BME280;3137;51.550;7.060;2023-02-02T14:02:40;101971.78;;;7.17;88.97
6208;BME280;3137;51.550;7.060;2023-02-02T14:05:19;101962.84;;;7.18;88.78
6208;BME280;3137;51.550;7.060;2023-02-02T14:07:47;101962.94;;;7.16;89.01
6208;BME280;3137;51.550;7.060;2023-02-02T14:10:23;101968.13;;;7.19;89.51
6208;BME280;3137;51.550;7.060;2023-02-02T14:12:51;101974.41;;;7.18;89.30
6208;BME280;3137;51.550;7.060;2023-02-02T14:15:18;101964.72;;;7.16;89.92
6208;BME280;3137;51.550;7.060;2023-02-02T14:18:01;101962.00;;;7.17;90.49
6208;BME280;3137;51.550;7.060;2023-02-02T14:20:40;101973.63;;;7.15;90.21
6208;BME280;3137;51.550;7.060;2023-02-02T14:26:11;101978.97;;;7.15;90.09
6208;BME280;3137;51.550;7.060;2023-02-02T14:28:41;101993.22;;;7.14;90.17
6208;BME280;3137;51.550;7.060;2023-02-02T14:31:27;101983.56;;;7.11;90.20
6208;BME280;3137;51.550;7.060;2023-02-02T14:34:25;101990.03;;;7.04;90.83
6208;BME280;3137;51.550;7.060;2023-02-02T14:40:02;101985.66;;;7.01;91.13
6208;BME280;3137;51.550;7.060;2023-02-02T14:43:05;101992.78;;;7.01;91.85
6208;BME280;3137;51.550;7.060;2023-02-02T14:49:04;101990.19;;;6.99;92.04
6208;BME280;3137;51.550;7.060;2023-02-02T14:51:33;101992.78;;;7.01;91.58
6208;BME280;3137;51.550;7.060;2023-02-02T14:54:19;101999.91;;;7.00;91.61
6208;BME280;3137;51.550;7.060;2023-02-02T14:56:50;101995.44;;;7.01;91.44
6208;BME280;3137;51.550;7.060;2023-02-02T14:59:21;102011.44;;;7.01;91.65
6208;BME280;3137;51.550;7.060;2023-02-02T15:02:13;102009.53;;;7.05;91.26
6208;BME280;3137;51.550;7.060;2023-02-02T15:04:41;102009.59;;;7.03;91.35
6208;BME280;3137;51.550;7.060;2023-02-02T15:09:50;102020.19;;;7.05;91.33
6208;BME280;3137;51.550;7.060;2023-02-02T15:12:20;102017.56;;;7.03;91.53
6208;BME280;3137;51.550;7.060;2023-02-02T15:22:58;102021.75;;;7.10;91.51
6208;BME280;3137;51.550;7.060;2023-02-02T15:31:25;102030.78;;;7.06;91.93